sensor_id;sensor_type;location;lat;lon;timestamp;P1;durP1;ratioP1;P2;durP2;ratioP2
82304;SDS011;71914;47.382;8.168;2024-03-08T00:00:02;32.90;;;13.05;;
82304;SDS011;71914;47.382;8.168;2024-03-08T00:02:34;40.38;;;13.90;;
82304;SDS011;71914;47.382;8.168;2024-03-08T00:05:00;39.50;;;14.75;;
82304;SDS011;71914;47.382;8.168;2024-03-08T00:07:26;34.25;;;13.10;;
82304;SDS011;71914;47.382;8.168;2024-03-08T00:09:53;32.05;;;13.10;;
82304;SDS011;71914;47.382;8.168;2024-03-08T00:12:20;35.10;;;14.13;;
82304;SDS011;71914;47.382;8.168;2024-03-08T00:14:45;39.83;;;12.70;;
82304;SDS011;71914;47.382;8.168;2024-03-08T00:17:11;37.03;;;13.90;;
82304;SDS011;71914;47.382;8.168;2024-03-08T00:19:36;35.42;;;12.93;;
82304;SDS011;71914;47.382;8.168;2024-03-08T00:22:02;34.85;;;13.32;;
82304;SDS011;71914;47.382;8.168;2024-03-08T00:24:28;38.33;;;13.80;;
82304;SDS011;71914;47.382;8.168;2024-03-08T00:26:54;35.08;;;13.32;;
82304;SDS011;71914;47.382;8.168;2024-03-08T00:29:21;32.35;;;12.40;;
82304;SDS011;71914;47.382;8.168;2024-03-08T00:31:47;36.15;;;13.20;;
82304;SDS011;71914;47.382;8.168;2024-03-08T00:34:13;37.28;;;14.88;;
82304;SDS011;71914;47.382;8.168;2024-03-08T00:36:38;34.42;;;13.32;;
82304;SDS011;71914;47.382;8.168;2024-03-08T00:39:04;39.85;;;15.20;;
82304;SDS011;71914;47.382;8.168;2024-03-08T00:41:32;41.45;;;13.00;;
82304;SDS011;71914;47.382;8.168;2024-03-08T00:43:58;40.30;;;14.68;;
82304;SDS011;71914;47.382;8.168;2024-03-08T00:46:25;34.75;;;14.20;;
82304;SDS011;71914;47.382;8.168;2024-03-08T00:48:50;44.65;;;14.73;;
82304;SDS011;71914;47.382;8.168;2024-03-08T00:51:16;42.90;;;14.98;;
82304;SDS011;71914;47.382;8.168;2024-03-08T00:53:42;40.13;;;15.27;;
82304;SDS011;71914;47.382;8.168;2024-03-08T00:56:08;36.67;;;14.77;;
82304;SDS011;71914;47.382;8.168;2024-03-08T00:58:36;42.33;;;14.38;;
82304;SDS011;71914;47.382;8.168;2024-03-08T01:01:02;40.53;;;13.73;;
82304;SDS011;71914;47.382;8.168;2024-03-08T01:05:57;32.33;;;12.80;;
82304;SDS011;71914;47.382;8.168;2024-03-08T01:08:22;37.63;;;13.27;;
82304;SDS011;71914;47.382;8.168;2024-03-08T01:10:48;39.67;;;14.48;;
82304;SDS011;71914;47.382;8.168;2024-03-08T01:15:41;46.53;;;15.27;;
82304;SDS011;71914;47.382;8.168;2024-03-08T01:18:07;43.95;;;15.70;;
82304;SDS011;71914;47.382;8.168;2024-03-08T01:20:34;48.50;;;15.88;;
82304;SDS011;71914;47.382;8.168;2024-03-08T01:22:59;68.70;;;17.58;;
82304;SDS011;71914;47.382;8.168;2024-03-08T01:25:25;56.17;;;17.17;;
82304;SDS011;71914;47.382;8.168;2024-03-08T01:27:51;65.35;;;17.40;;
82304;SDS011;71914;47.382;8.168;2024-03-08T01:30:18;57.97;;;18.25;;
82304;SDS011;71914;47.382;8.168;2024-03-08T01:32:44;56.33;;;17.63;;
82304;SDS011;71914;47.382;8.168;2024-03-08T01:35:10;51.38;;;16.35;;
82304;SDS011;71914;47.382;8.168;2024-03-08T01:37:37;50.53;;;17.35;;
82304;SDS011;71914;47.382;8.168;2024-03-08T01:40:03;39.90;;;15.40;;
82304;SDS011;71914;47.382;8.168;2024-03-08T01:42:29;46.10;;;15.82;;
82304;SDS011;71914;47.382;8.168;2024-03-08T01:44:55;40.35;;;14.68;;
82304;SDS011;71914;47.382;8.168;2024-03-08T01:47:21;39.63;;;14.50;;
82304;SDS011;71914;47.382;8.168;2024-03-08T01:49:50;40.10;;;15.18;;
82304;SDS011;71914;47.382;8.168;2024-03-08T01:52:16;40.67;;;14.82;;
82304;SDS011;71914;47.382;8.168;2024-03-08T01:54:45;44.42;;;16.83;;
82304;SDS011;71914;47.382;8.168;2024-03-08T01:57:11;38.47;;;16.10;;
82304;SDS011;71914;47.382;8.168;2024-03-08T01:59:39;41.65;;;16.05;;
82304;SDS011;71914;47.382;8.168;2024-03-08T02:02:06;42.75;;;17.17;;
82304;SDS011;71914;47.382;8.168;2024-03-08T02:04:36;38.67;;;14.73;;
82304;SDS011;71914;47.382;8.168;2024-03-08T02:07:03;47.22;;;16.90;;
82304;SDS011;71914;47.382;8.168;2024-03-08T02:09:30;39.28;;;15.95;;
82304;SDS011;71914;47.382;8.168;2024-03-08T02:11:58;43.85;;;15.55;;
82304;SDS011;71914;47.382;8.168;2024-03-08T02:14:23;36.53;;;15.50;;
82304;SDS011;71914;47.382;8.168;2024-03-08T02:16:49;37.58;;;14.40;;
82304;SDS011;71914;47.382;8.168;2024-03-08T02:21:43;36.25;;;14.02;;
82304;SDS011;71914;47.382;8.168;2024-03-08T02:24:12;42.10;;;16.42;;
82304;SDS011;71914;47.382;8.168;2024-03-08T02:26:37;46.05;;;16.10;;
82304;SDS011;71914;47.382;8.168;2024-03-08T02:29:03;40.63;;;14.45;;
82304;SDS011;71914;47.382;8.168;2024-03-08T02:31:30;32.25;;;12.93;;
82304;SDS011;71914;47.382;8.168;2024-03-08T02:33:56;44.67;;;16.17;;
82304;SDS011;71914;47.382;8.168;2024-03-08T02:36:21;42.00;;;15.20;;
82304;SDS011;71914;47.382;8.168;2024-03-08T02:38:48;39.65;;;15.10;;
82304;SDS011;71914;47.382;8.168;2024-03-08T02:41:14;35.70;;;16.08;;
82304;SDS011;71914;47.382;8.168;2024-03-08T02:43:40;39.33;;;16.80;;
82304;SDS011;71914;47.382;8.168;2024-03-08T02:46:05;41.67;;;17.77;;
82304;SDS011;71914;47.382;8.168;2024-03-08T02:48:31;36.00;;;14.90;;
82304;SDS011;71914;47.382;8.168;2024-03-08T02:50:57;38.95;;;16.13;;
82304;SDS011;71914;47.382;8.168;2024-03-08T02:53:22;39.53;;;15.00;;
82304;SDS011;71914;47.382;8.168;2024-03-08T02:55:51;42.58;;;17.98;;
82304;SDS011;71914;47.382;8.168;2024-03-08T02:58:16;37.20;;;13.80;;
82304;SDS011;71914;47.382;8.168;2024-03-08T03:00:43;40.28;;;15.20;;
82304;SDS011;71914;47.382;8.168;2024-03-08T03:03:09;42.28;;;15.23;;
82304;SDS011;71914;47.382;8.168;2024-03-08T03:05:35;37.20;;;14.95;;
82304;SDS011;71914;47.382;8.168;2024-03-08T03:08:01;33.80;;;15.25;;
82304;SDS011;71914;47.382;8.168;2024-03-08T03:10:29;31.45;;;13.15;;
82304;SDS011;71914;47.382;8.168;2024-03-08T03:12:56;37.85;;;15.75;;
82304;SDS011;71914;47.382;8.168;2024-03-08T03:15:21;28.88;;;13.52;;
82304;SDS011;71914;47.382;8.168;2024-03-08T03:17:47;28.15;;;13.45;;
82304;SDS011;71914;47.382;8.168;2024-03-08T03:20:16;27.20;;;13.18;;
82304;SDS011;71914;47.382;8.168;2024-03-08T03:22:48;34.72;;;14.85;;
82304;SDS011;71914;47.382;8.168;2024-03-08T03:25:17;34.17;;;14.50;;
82304;SDS011;71914;47.382;8.168;2024-03-08T03:27:48;42.65;;;16.48;;
82304;SDS011;71914;47.382;8.168;2024-03-08T03:30:16;37.83;;;16.13;;
82304;SDS011;71914;47.382;8.168;2024-03-08T03:32:46;41.63;;;18.33;;
82304;SDS011;71914;47.382;8.168;2024-03-08T03:35:12;37.63;;;14.80;;
82304;SDS011;71914;47.382;8.168;2024-03-08T03:37:38;38.60;;;17.13;;
82304;SDS011;71914;47.382;8.168;2024-03-08T03:40:05;41.85;;;16.15;;
82304;SDS011;71914;47.382;8.168;2024-03-08T03:42:33;41.60;;;16.98;;
82304;SDS011;71914;47.382;8.168;2024-03-08T03:44:59;39.85;;;14.52;;
82304;SDS011;71914;47.382;8.168;2024-03-08T03:47:26;34.10;;;14.85;;
82304;SDS011;71914;47.382;8.168;2024-03-08T03:49:52;45.55;;;15.38;;
82304;SDS011;71914;47.382;8.168;2024-03-08T03:52:19;38.25;;;15.43;;
82304;SDS011;71914;47.382;8.168;2024-03-08T03:54:44;41.10;;;15.10;;
82304;SDS011;71914;47.382;8.168;2024-03-08T03:57:10;35.17;;;14.90;;
82304;SDS011;71914;47.382;8.168;2024-03-08T03:59:37;31.05;;;13.23;;
82304;SDS011;71914;47.382;8.168;2024-03-08T04:02:03;32.45;;;13.10;;
82304;SDS011;71914;47.382;8.168;2024-03-08T04:04:30;38.15;;;17.90;;
82304;SDS011;71914;47.382;8.168;2024-03-08T04:06:56;30.27;;;14.30;;
82304;SDS011;71914;47.382;8.168;2024-03-08T04:09:22;32.72;;;12.88;;
82304;SDS011;71914;47.382;8.168;2024-03-08T04:11:47;24.48;;;10.98;;
82304;SDS011;71914;47.382;8.168;2024-03-08T04:14:13;36.80;;;15.30;;
82304;SDS011;71914;47.382;8.168;2024-03-08T04:16:39;34.08;;;14.02;;
82304;SDS011;71914;47.382;8.168;2024-03-08T04:19:04;40.05;;;15.18;;
82304;SDS011;71914;47.382;8.168;2024-03-08T04:21:31;37.70;;;14.38;;
82304;SDS011;71914;47.382;8.168;2024-03-08T04:23:57;34.42;;;15.23;;
82304;SDS011;71914;47.382;8.168;2024-03-08T04:26:23;46.33;;;18.20;;
82304;SDS011;71914;47.382;8.168;2024-03-08T04:28:48;34.70;;;14.05;;
82304;SDS011;71914;47.382;8.168;2024-03-08T04:31:14;34.15;;;15.02;;
82304;SDS011;71914;47.382;8.168;2024-03-08T04:33:40;30.13;;;13.23;;
82304;SDS011;71914;47.382;8.168;2024-03-08T04:36:06;34.45;;;14.82;;
82304;SDS011;71914;47.382;8.168;2024-03-08T04:38:34;27.42;;;11.63;;
82304;SDS011;71914;47.382;8.168;2024-03-08T04:40:59;31.55;;;13.00;;
82304;SDS011;71914;47.382;8.168;2024-03-08T04:43:27;31.10;;;15.70;;
82304;SDS011;71914;47.382;8.168;2024-03-08T04:45:55;31.50;;;14.25;;
82304;SDS011;71914;47.382;8.168;2024-03-08T04:48:21;27.77;;;12.52;;
82304;SDS011;71914;47.382;8.168;2024-03-08T04:50:46;25.27;;;10.35;;
82304;SDS011;71914;47.382;8.168;2024-03-08T04:53:12;16.40;;;9.07;;
82304;SDS011;71914;47.382;8.168;2024-03-08T04:55:40;32.15;;;14.13;;
82304;SDS011;71914;47.382;8.168;2024-03-08T04:58:05;28.67;;;12.65;;
82304;SDS011;71914;47.382;8.168;2024-03-08T05:00:31;26.10;;;11.25;;
82304;SDS011;71914;47.382;8.168;2024-03-08T05:02:57;22.08;;;10.10;;
82304;SDS011;71914;47.382;8.168;2024-03-08T05:05:23;31.15;;;13.52;;
82304;SDS011;71914;47.382;8.168;2024-03-08T05:07:50;24.27;;;12.05;;
82304;SDS011;71914;47.382;8.168;2024-03-08T05:10:15;24.08;;;11.90;;
82304;SDS011;71914;47.382;8.168;2024-03-08T05:12:44;32.75;;;13.75;;
82304;SDS011;71914;47.382;8.168;2024-03-08T05:15:09;25.35;;;12.00;;
82304;SDS011;71914;47.382;8.168;2024-03-08T05:17:35;39.83;;;15.93;;
82304;SDS011;71914;47.382;8.168;2024-03-08T05:20:01;27.20;;;13.13;;
82304;SDS011;71914;47.382;8.168;2024-03-08T05:22:27;34.03;;;14.52;;
82304;SDS011;71914;47.382;8.168;2024-03-08T05:24:53;30.90;;;13.38;;
82304;SDS011;71914;47.382;8.168;2024-03-08T05:27:18;33.33;;;13.55;;
82304;SDS011;71914;47.382;8.168;2024-03-08T05:29:45;43.53;;;15.60;;
82304;SDS011;71914;47.382;8.168;2024-03-08T05:32:11;39.25;;;14.18;;
82304;SDS011;71914;47.382;8.168;2024-03-08T05:34:37;39.72;;;16.00;;
82304;SDS011;71914;47.382;8.168;2024-03-08T05:37:03;40.85;;;14.65;;
82304;SDS011;71914;47.382;8.168;2024-03-08T05:39:29;33.47;;;14.65;;
82304;SDS011;71914;47.382;8.168;2024-03-08T05:41:55;39.33;;;15.70;;
82304;SDS011;71914;47.382;8.168;2024-03-08T05:44:21;37.45;;;14.85;;
82304;SDS011;71914;47.382;8.168;2024-03-08T05:46:48;35.70;;;14.05;;
82304;SDS011;71914;47.382;8.168;2024-03-08T05:49:14;30.85;;;13.70;;
82304;SDS011;71914;47.382;8.168;2024-03-08T05:51:40;33.88;;;14.70;;
82304;SDS011;71914;47.382;8.168;2024-03-08T05:54:06;29.98;;;12.57;;
82304;SDS011;71914;47.382;8.168;2024-03-08T05:56:35;34.35;;;14.63;;
82304;SDS011;71914;47.382;8.168;2024-03-08T05:59:01;29.55;;;15.00;;
82304;SDS011;71914;47.382;8.168;2024-03-08T06:01:27;26.52;;;12.60;;
82304;SDS011;71914;47.382;8.168;2024-03-08T06:03:54;30.88;;;14.65;;
82304;SDS011;71914;47.382;8.168;2024-03-08T06:06:22;25.77;;;11.52;;
82304;SDS011;71914;47.382;8.168;2024-03-08T06:08:48;33.38;;;14.75;;
82304;SDS011;71914;47.382;8.168;2024-03-08T06:11:17;34.72;;;16.08;;
82304;SDS011;71914;47.382;8.168;2024-03-08T06:13:43;23.75;;;12.05;;
82304;SDS011;71914;47.382;8.168;2024-03-08T06:16:09;38.72;;;17.58;;
82304;SDS011;71914;47.382;8.168;2024-03-08T06:18:35;41.08;;;15.85;;
82304;SDS011;71914;47.382;8.168;2024-03-08T06:21:05;35.15;;;15.63;;
82304;SDS011;71914;47.382;8.168;2024-03-08T06:23:32;35.55;;;14.85;;
82304;SDS011;71914;47.382;8.168;2024-03-08T06:25:57;43.58;;;22.42;;
82304;SDS011;71914;47.382;8.168;2024-03-08T06:28:23;34.80;;;16.20;;
82304;SDS011;71914;47.382;8.168;2024-03-08T06:30:49;26.38;;;12.80;;
82304;SDS011;71914;47.382;8.168;2024-03-08T06:35:41;42.30;;;19.58;;
82304;SDS011;71914;47.382;8.168;2024-03-08T06:38:09;14.70;;;7.00;;
82304;SDS011;71914;47.382;8.168;2024-03-08T06:43:00;14.13;;;8.48;;
82304;SDS011;71914;47.382;8.168;2024-03-08T06:45:25;14.60;;;6.18;;
82304;SDS011;71914;47.382;8.168;2024-03-08T06:47:51;35.08;;;13.75;;
82304;SDS011;71914;47.382;8.168;2024-03-08T06:50:17;33.42;;;14.27;;
82304;SDS011;71914;47.382;8.168;2024-03-08T06:52:42;28.98;;;14.68;;
82304;SDS011;71914;47.382;8.168;2024-03-08T06:55:11;37.45;;;17.92;;
82304;SDS011;71914;47.382;8.168;2024-03-08T06:57:37;40.67;;;18.63;;
82304;SDS011;71914;47.382;8.168;2024-03-08T07:00:04;29.10;;;14.20;;
82304;SDS011;71914;47.382;8.168;2024-03-08T07:02:34;13.25;;;7.10;;
82304;SDS011;71914;47.382;8.168;2024-03-08T07:05:00;40.95;;;19.90;;
82304;SDS011;71914;47.382;8.168;2024-03-08T07:07:26;24.42;;;12.10;;
82304;SDS011;71914;47.382;8.168;2024-03-08T07:09:52;44.40;;;16.33;;
82304;SDS011;71914;47.382;8.168;2024-03-08T07:12:19;32.00;;;14.63;;
82304;SDS011;71914;47.382;8.168;2024-03-08T07:14:45;29.95;;;13.93;;
82304;SDS011;71914;47.382;8.168;2024-03-08T07:17:11;37.42;;;15.38;;
82304;SDS011;71914;47.382;8.168;2024-03-08T07:19:37;30.55;;;14.45;;
82304;SDS011;71914;47.382;8.168;2024-03-08T07:22:05;23.13;;;12.05;;
82304;SDS011;71914;47.382;8.168;2024-03-08T07:24:34;34.50;;;16.55;;
82304;SDS011;71914;47.382;8.168;2024-03-08T07:27:15;15.18;;;8.57;;
82304;SDS011;71914;47.382;8.168;2024-03-08T07:29:43;31.20;;;14.15;;
82304;SDS011;71914;47.382;8.168;2024-03-08T07:32:09;36.75;;;15.82;;
82304;SDS011;71914;47.382;8.168;2024-03-08T07:34:44;33.70;;;16.52;;
82304;SDS011;71914;47.382;8.168;2024-03-08T07:37:09;34.80;;;14.25;;
82304;SDS011;71914;47.382;8.168;2024-03-08T07:39:38;24.23;;;11.85;;
82304;SDS011;71914;47.382;8.168;2024-03-08T07:42:04;26.48;;;10.60;;
82304;SDS011;71914;47.382;8.168;2024-03-08T07:44:30;29.60;;;14.70;;
82304;SDS011;71914;47.382;8.168;2024-03-08T07:46:58;27.73;;;14.20;;
82304;SDS011;71914;47.382;8.168;2024-03-08T07:49:24;17.98;;;8.00;;
82304;SDS011;71914;47.382;8.168;2024-03-08T07:51:50;28.73;;;13.20;;
82304;SDS011;71914;47.382;8.168;2024-03-08T07:54:16;26.23;;;12.70;;
82304;SDS011;71914;47.382;8.168;2024-03-08T07:56:42;36.35;;;16.48;;
82304;SDS011;71914;47.382;8.168;2024-03-08T07:59:08;30.60;;;15.02;;
82304;SDS011;71914;47.382;8.168;2024-03-08T08:01:34;24.10;;;10.52;;
82304;SDS011;71914;47.382;8.168;2024-03-08T08:04:01;25.70;;;10.93;;
82304;SDS011;71914;47.382;8.168;2024-03-08T08:06:26;21.58;;;11.23;;
82304;SDS011;71914;47.382;8.168;2024-03-08T08:08:52;23.92;;;11.35;;
82304;SDS011;71914;47.382;8.168;2024-03-08T08:11:18;23.08;;;10.10;;
82304;SDS011;71914;47.382;8.168;2024-03-08T08:13:45;20.83;;;10.02;;
82304;SDS011;71914;47.382;8.168;2024-03-08T08:16:10;26.08;;;13.80;;
82304;SDS011;71914;47.382;8.168;2024-03-08T08:18:38;23.00;;;11.50;;
82304;SDS011;71914;47.382;8.168;2024-03-08T08:21:06;24.38;;;11.15;;
82304;SDS011;71914;47.382;8.168;2024-03-08T08:23:31;28.73;;;12.55;;
82304;SDS011;71914;47.382;8.168;2024-03-08T08:25:57;26.88;;;14.52;;
82304;SDS011;71914;47.382;8.168;2024-03-08T08:28:23;28.80;;;13.60;;
82304;SDS011;71914;47.382;8.168;2024-03-08T08:30:49;27.98;;;15.60;;
82304;SDS011;71914;47.382;8.168;2024-03-08T08:33:15;17.42;;;8.40;;
82304;SDS011;71914;47.382;8.168;2024-03-08T08:35:41;22.13;;;12.35;;
82304;SDS011;71914;47.382;8.168;2024-03-08T08:38:09;13.75;;;7.10;;
82304;SDS011;71914;47.382;8.168;2024-03-08T08:40:34;25.17;;;11.93;;
82304;SDS011;71914;47.382;8.168;2024-03-08T08:43:02;25.60;;;11.13;;
82304;SDS011;71914;47.382;8.168;2024-03-08T08:45:32;27.73;;;11.90;;
82304;SDS011;71914;47.382;8.168;2024-03-08T08:47:58;29.85;;;15.35;;
82304;SDS011;71914;47.382;8.168;2024-03-08T08:50:27;14.20;;;6.53;;
82304;SDS011;71914;47.382;8.168;2024-03-08T08:52:53;29.10;;;17.63;;
82304;SDS011;71914;47.382;8.168;2024-03-08T08:55:21;27.15;;;15.45;;
82304;SDS011;71914;47.382;8.168;2024-03-08T08:57:50;16.77;;;8.40;;
82304;SDS011;71914;47.382;8.168;2024-03-08T09:00:17;24.85;;;11.20;;
82304;SDS011;71914;47.382;8.168;2024-03-08T09:02:45;30.10;;;13.40;;
82304;SDS011;71914;47.382;8.168;2024-03-08T09:05:10;30.05;;;14.35;;
82304;SDS011;71914;47.382;8.168;2024-03-08T09:07:36;30.02;;;14.88;;
82304;SDS011;71914;47.382;8.168;2024-03-08T09:10:02;23.77;;;8.52;;
82304;SDS011;71914;47.382;8.168;2024-03-08T09:12:30;24.95;;;11.98;;
82304;SDS011;71914;47.382;8.168;2024-03-08T09:14:58;20.40;;;11.50;;
82304;SDS011;71914;47.382;8.168;2024-03-08T09:17:24;20.48;;;12.13;;
82304;SDS011;71914;47.382;8.168;2024-03-08T09:19:50;26.65;;;10.57;;
82304;SDS011;71914;47.382;8.168;2024-03-08T09:22:16;28.27;;;10.90;;
82304;SDS011;71914;47.382;8.168;2024-03-08T09:24:43;26.77;;;14.25;;
82304;SDS011;71914;47.382;8.168;2024-03-08T09:27:09;27.83;;;13.82;;
82304;SDS011;71914;47.382;8.168;2024-03-08T09:29:36;18.05;;;8.20;;
82304;SDS011;71914;47.382;8.168;2024-03-08T09:32:02;24.13;;;13.30;;
82304;SDS011;71914;47.382;8.168;2024-03-08T09:34:28;27.20;;;13.30;;
82304;SDS011;71914;47.382;8.168;2024-03-08T09:36:53;21.08;;;9.73;;
82304;SDS011;71914;47.382;8.168;2024-03-08T09:39:19;27.90;;;12.00;;
82304;SDS011;71914;47.382;8.168;2024-03-08T09:41:46;22.30;;;11.30;;
82304;SDS011;71914;47.382;8.168;2024-03-08T09:44:14;29.88;;;14.07;;
82304;SDS011;71914;47.382;8.168;2024-03-08T09:46:42;29.73;;;14.60;;
82304;SDS011;71914;47.382;8.168;2024-03-08T09:51:33;26.95;;;13.63;;
82304;SDS011;71914;47.382;8.168;2024-03-08T09:54:03;18.00;;;9.90;;
82304;SDS011;71914;47.382;8.168;2024-03-08T09:56:33;28.25;;;13.18;;
82304;SDS011;71914;47.382;8.168;2024-03-08T09:59:00;27.25;;;13.07;;
82304;SDS011;71914;47.382;8.168;2024-03-08T10:01:46;27.00;;;12.77;;
82304;SDS011;71914;47.382;8.168;2024-03-08T10:04:11;15.30;;;7.57;;
82304;SDS011;71914;47.382;8.168;2024-03-08T10:06:39;21.35;;;12.38;;
82304;SDS011;71914;47.382;8.168;2024-03-08T10:09:05;16.10;;;8.48;;
82304;SDS011;71914;47.382;8.168;2024-03-08T10:11:33;23.98;;;12.43;;
82304;SDS011;71914;47.382;8.168;2024-03-08T10:13:58;21.38;;;11.30;;
82304;SDS011;71914;47.382;8.168;2024-03-08T10:16:27;22.88;;;11.55;;
82304;SDS011;71914;47.382;8.168;2024-03-08T10:18:54;20.25;;;11.73;;
82304;SDS011;71914;47.382;8.168;2024-03-08T10:21:21;26.05;;;13.45;;
82304;SDS011;71914;47.382;8.168;2024-03-08T10:23:47;19.73;;;8.73;;
82304;SDS011;71914;47.382;8.168;2024-03-08T10:26:14;19.20;;;9.95;;
82304;SDS011;71914;47.382;8.168;2024-03-08T10:28:40;18.63;;;10.93;;
82304;SDS011;71914;47.382;8.168;2024-03-08T10:31:07;10.40;;;5.07;;
82304;SDS011;71914;47.382;8.168;2024-03-08T10:33:32;19.95;;;9.85;;
82304;SDS011;71914;47.382;8.168;2024-03-08T10:36:00;21.63;;;10.65;;
82304;SDS011;71914;47.382;8.168;2024-03-08T10:38:26;19.35;;;8.40;;
82304;SDS011;71914;47.382;8.168;2024-03-08T10:40:53;19.30;;;9.75;;
82304;SDS011;71914;47.382;8.168;2024-03-08T10:43:22;10.13;;;8.98;;
82304;SDS011;71914;47.382;8.168;2024-03-08T10:45:50;15.30;;;8.75;;
82304;SDS011;71914;47.382;8.168;2024-03-08T10:48:31;11.68;;;6.13;;
82304;SDS011;71914;47.382;8.168;2024-03-08T10:50:57;23.92;;;10.85;;
82304;SDS011;71914;47.382;8.168;2024-03-08T10:53:27;19.42;;;11.27;;
82304;SDS011;71914;47.382;8.168;2024-03-08T10:55:54;24.80;;;12.90;;
82304;SDS011;71914;47.382;8.168;2024-03-08T10:58:21;20.35;;;9.80;;
82304;SDS011;71914;47.382;8.168;2024-03-08T11:00:52;22.70;;;9.50;;
82304;SDS011;71914;47.382;8.168;2024-03-08T11:06:03;17.75;;;8.77;;
82304;SDS011;71914;47.382;8.168;2024-03-08T11:08:30;23.65;;;12.02;;
82304;SDS011;71914;47.382;8.168;2024-03-08T11:10:56;20.63;;;10.10;;
82304;SDS011;71914;47.382;8.168;2024-03-08T11:13:34;18.00;;;8.77;;
82304;SDS011;71914;47.382;8.168;2024-03-08T11:16:07;24.98;;;12.38;;
82304;SDS011;71914;47.382;8.168;2024-03-08T11:18:34;22.30;;;10.23;;
82304;SDS011;71914;47.382;8.168;2024-03-08T11:21:03;17.92;;;8.95;;
82304;SDS011;71914;47.382;8.168;2024-03-08T11:23:37;24.38;;;11.88;;
82304;SDS011;71914;47.382;8.168;2024-03-08T11:26:03;9.50;;;7.03;;
82304;SDS011;71914;47.382;8.168;2024-03-08T11:28:32;16.17;;;9.60;;
82304;SDS011;71914;47.382;8.168;2024-03-08T11:33:51;12.88;;;7.95;;
82304;SDS011;71914;47.382;8.168;2024-03-08T11:36:21;11.98;;;5.93;;
82304;SDS011;71914;47.382;8.168;2024-03-08T11:38:48;20.73;;;11.02;;
82304;SDS011;71914;47.382;8.168;2024-03-08T11:41:14;21.42;;;10.45;;
82304;SDS011;71914;47.382;8.168;2024-03-08T11:43:40;17.13;;;8.50;;
82304;SDS011;71914;47.382;8.168;2024-03-08T11:46:09;16.52;;;7.25;;
82304;SDS011;71914;47.382;8.168;2024-03-08T11:48:35;18.40;;;8.50;;
82304;SDS011;71914;47.382;8.168;2024-03-08T11:51:01;20.83;;;10.77;;
82304;SDS011;71914;47.382;8.168;2024-03-08T11:53:29;19.00;;;11.15;;
82304;SDS011;71914;47.382;8.168;2024-03-08T11:55:55;20.17;;;9.18;;
82304;SDS011;71914;47.382;8.168;2024-03-08T11:58:31;16.10;;;10.15;;
82304;SDS011;71914;47.382;8.168;2024-03-08T12:01:02;14.93;;;8.82;;
82304;SDS011;71914;47.382;8.168;2024-03-08T12:03:29;13.82;;;8.38;;
82304;SDS011;71914;47.382;8.168;2024-03-08T12:05:59;17.10;;;10.30;;
82304;SDS011;71914;47.382;8.168;2024-03-08T12:08:24;13.90;;;7.53;;
82304;SDS011;71914;47.382;8.168;2024-03-08T12:10:54;15.55;;;9.15;;
82304;SDS011;71914;47.382;8.168;2024-03-08T12:13:24;21.05;;;8.70;;
82304;SDS011;71914;47.382;8.168;2024-03-08T12:15:50;20.52;;;9.32;;
82304;SDS011;71914;47.382;8.168;2024-03-08T12:18:17;20.17;;;11.77;;
82304;SDS011;71914;47.382;8.168;2024-03-08T12:20:42;16.70;;;9.40;;
82304;SDS011;71914;47.382;8.168;2024-03-08T12:23:15;21.33;;;11.48;;
82304;SDS011;71914;47.382;8.168;2024-03-08T12:25:41;20.58;;;10.40;;
82304;SDS011;71914;47.382;8.168;2024-03-08T12:28:09;18.52;;;10.60;;
82304;SDS011;71914;47.382;8.168;2024-03-08T12:30:36;16.80;;;8.15;;
82304;SDS011;71914;47.382;8.168;2024-03-08T12:33:12;52.40;;;22.05;;
82304;SDS011;71914;47.382;8.168;2024-03-08T12:35:38;21.95;;;9.75;;
82304;SDS011;71914;47.382;8.168;2024-03-08T12:38:04;53.50;;;31.42;;
82304;SDS011;71914;47.382;8.168;2024-03-08T12:40:32;19.00;;;9.90;;
82304;SDS011;71914;47.382;8.168;2024-03-08T12:42:59;24.27;;;14.27;;
82304;SDS011;71914;47.382;8.168;2024-03-08T12:45:27;17.20;;;10.40;;
82304;SDS011;71914;47.382;8.168;2024-03-08T12:47:53;11.35;;;7.53;;
82304;SDS011;71914;47.382;8.168;2024-03-08T12:50:19;15.85;;;8.73;;
82304;SDS011;71914;47.382;8.168;2024-03-08T12:52:45;17.92;;;10.13;;
82304;SDS011;71914;47.382;8.168;2024-03-08T12:55:11;21.13;;;12.05;;
82304;SDS011;71914;47.382;8.168;2024-03-08T12:57:37;20.83;;;10.68;;
82304;SDS011;71914;47.382;8.168;2024-03-08T13:00:04;16.27;;;9.00;;
82304;SDS011;71914;47.382;8.168;2024-03-08T13:02:31;17.60;;;9.07;;
82304;SDS011;71914;47.382;8.168;2024-03-08T13:04:58;17.40;;;9.85;;
82304;SDS011;71914;47.382;8.168;2024-03-08T13:07:24;21.45;;;13.05;;
82304;SDS011;71914;47.382;8.168;2024-03-08T13:09:53;20.75;;;11.75;;
82304;SDS011;71914;47.382;8.168;2024-03-08T13:12:22;17.15;;;9.95;;
82304;SDS011;71914;47.382;8.168;2024-03-08T13:14:48;19.85;;;11.05;;
82304;SDS011;71914;47.382;8.168;2024-03-08T13:17:14;18.23;;;9.90;;
82304;SDS011;71914;47.382;8.168;2024-03-08T13:19:42;18.02;;;10.68;;
82304;SDS011;71914;47.382;8.168;2024-03-08T13:22:07;18.33;;;8.57;;
82304;SDS011;71914;47.382;8.168;2024-03-08T13:24:37;18.23;;;10.70;;
82304;SDS011;71914;47.382;8.168;2024-03-08T13:27:03;18.65;;;9.35;;
82304;SDS011;71914;47.382;8.168;2024-03-08T13:29:41;19.90;;;10.48;;
82304;SDS011;71914;47.382;8.168;2024-03-08T13:32:08;14.48;;;7.82;;
82304;SDS011;71914;47.382;8.168;2024-03-08T13:34:37;16.88;;;10.73;;
82304;SDS011;71914;47.382;8.168;2024-03-08T13:37:04;17.80;;;9.07;;
82304;SDS011;71914;47.382;8.168;2024-03-08T13:39:31;19.08;;;9.85;;
82304;SDS011;71914;47.382;8.168;2024-03-08T13:42:05;17.75;;;10.77;;
82304;SDS011;71914;47.382;8.168;2024-03-08T13:44:34;16.85;;;9.20;;
82304;SDS011;71914;47.382;8.168;2024-03-08T13:47:00;13.43;;;8.88;;
82304;SDS011;71914;47.382;8.168;2024-03-08T13:49:29;19.38;;;10.85;;
82304;SDS011;71914;47.382;8.168;2024-03-08T13:51:55;16.67;;;9.07;;
82304;SDS011;71914;47.382;8.168;2024-03-08T13:54:22;18.15;;;11.15;;
82304;SDS011;71914;47.382;8.168;2024-03-08T13:59:14;19.10;;;9.60;;
82304;SDS011;71914;47.382;8.168;2024-03-08T14:01:40;11.30;;;8.25;;
82304;SDS011;71914;47.382;8.168;2024-03-08T14:04:05;16.80;;;11.32;;
82304;SDS011;71914;47.382;8.168;2024-03-08T14:06:33;16.70;;;10.23;;
82304;SDS011;71914;47.382;8.168;2024-03-08T14:09:00;14.88;;;8.48;;
82304;SDS011;71914;47.382;8.168;2024-03-08T14:11:28;15.40;;;8.75;;
82304;SDS011;71914;47.382;8.168;2024-03-08T14:13:53;16.77;;;8.63;;
82304;SDS011;71914;47.382;8.168;2024-03-08T14:16:19;16.13;;;9.55;;
82304;SDS011;71914;47.382;8.168;2024-03-08T14:18:45;19.00;;;11.70;;
82304;SDS011;71914;47.382;8.168;2024-03-08T14:21:11;15.13;;;9.73;;
82304;SDS011;71914;47.382;8.168;2024-03-08T14:23:37;18.17;;;9.18;;
82304;SDS011;71914;47.382;8.168;2024-03-08T14:26:03;15.82;;;8.35;;
82304;SDS011;71914;47.382;8.168;2024-03-08T14:28:30;14.25;;;9.07;;
82304;SDS011;71914;47.382;8.168;2024-03-08T14:30:57;17.95;;;9.30;;
82304;SDS011;71914;47.382;8.168;2024-03-08T14:33:23;14.15;;;8.25;;
82304;SDS011;71914;47.382;8.168;2024-03-08T14:35:50;17.42;;;9.13;;
82304;SDS011;71914;47.382;8.168;2024-03-08T14:38:16;20.10;;;11.52;;
82304;SDS011;71914;47.382;8.168;2024-03-08T14:40:43;13.13;;;7.57;;
82304;SDS011;71914;47.382;8.168;2024-03-08T14:43:12;12.77;;;8.48;;